Fort Mc Coy, Florida
Current Conditions -  °F | °C
As of 10:15 PM on Saturday 22 Nov 2014 (Local Time) from K28J Reporting Station
Overcast Overcast  
Wind Chill: 68°   Ceiling: 3100
Heat Index: 68°   Visibility: 10mi
Dew Point: 66°   Wind: 12mph
Humidity: 94%   Direction: 110°ESE
Pressure: 30.16"   Gusts: NA
Location:  29.3142°N, 81.8267°W
Report Text: K28J 230315Z AUTO 11010KT 10SM SCT024 OVC031 20/19 A3016 RMK AO2
Loading
Personal Weather Stations






























Interactive Weather Map New forecast layout! Learn more

10-Day Weather Forecast

Advertisements
Track Severe Weather on mobile